Phillips Army Airfield, MD

6:46 PM EDT on March 30, 2017 (GMT -0400)
Phillips Army Air Field | | Change Station

Elev 56 ft 39.47 °N, 76.17 °W | Updated 48 minutes ago

Overcast
Overcast
49 °F
Feels Like 49 °F
N
8
Wind Variable Wind from SE

Today
High -- | Low -- °F
--% Chance of Precip.
Yesterday
High -- | Low -- °F
Precip. -- in
Pressure 30.12 in
Visibility 10.0 miles
Clouds Overcast 4900 ft
Dew Point 31 °F
Humidity 51%
Rainfall 0.00 in
Snow Depth Not available.
6:51 AM 7:26 PM
Waxing Crescent, 11% visible
METAR KAPG 302158Z 14007KT 10SM OVC049 09/00 A3011 RMK AO2A LTG DSNT NW SLP200 T00921004
Pressure 30.12 in
Visibility 10.0 miles
Clouds Overcast 4900 ft
Dew Point 31 °F
Humidity 51%
Rainfall 0.00 in
Snow Depth Not available.
6:51 AM 7:26 PM
Waxing Crescent, 11% visible
METAR KAPG 302158Z 14007KT 10SM OVC049 09/00 A3011 RMK AO2A LTG DSNT NW SLP200 T00921004

Get Severe Weather Alerts

Thanks for signing up!

Be on the lookout for a verification email in your inbox.

You'll start receiving the daily forecast at 8 AM.

×

10-Day Weather Forecast

Almanac

Astronomy

Mar. 30, 2017 Rise Set
Actual Time
Civil Twilight
Nautical Twilight
Astronomical Twilight
Moon
Length of Visible Light
Length of Day
Tomorrow will be .
, % of the Moon is Illuminated

Today's Extremes

State Highs State Lows

Community

WunderPhotos

Upload Photos

1,962,540 photos uploaded!

WunderBlog® & News

Nearby

Air Quality

  Air Quality AQ Index Pollutant
Not available.

Snow Depth

Station Depth Elevation

Earthquake Activity

City Distance Mag. Time & Date
Minimum magnitude displayed is 2.5.

Earthquake Activity

City Distance Mag. Time & Date
Minimum magnitude displayed is 2.5.

Coastal Water Temperatures

Place Temperature

Stations

Nearby Weather Stations

Station Location Temp. Windchill Dew Point Humidity Wind Precip. Elev Updated Type
                   

Watches & Warnings

There are currently no watches in effect.